Time,TemperatureF,DewpointF,PressureIn,WindDirection,WindDirectionDegrees,WindSpeedMPH,WindSpeedGustMPH,Humidity,HourlyPrecipIn,Conditions,Clouds,dailyrainin,SoftwareType,DateUTC
2013-05-15 00:24:00,53.0,46.0,-100.00,NE,55,0.0,6.0,77,0.00,,,0.00,,2013-05-15 04:24:00,
2013-05-15 00:33:00,53.0,46.0,-100.00,NE,55,0.0,6.0,77,0.00,,,0.00,,2013-05-15 04:33:00,
2013-05-15 00:43:00,53.0,46.0,-100.00,NE,55,0.0,6.0,77,0.00,,,0.00,,2013-05-15 04:43:00,
2013-05-15 00:52:00,53.0,46.0,-100.00,NE,55,0.0,6.0,77,0.00,,,0.00,,2013-05-15 04:52:00,
2013-05-15 01:22:00,53.0,47.0,-100.00,NNE,28,2.0,5.0,81,0.00,,,0.00,,2013-05-15 05:22:00,
2013-05-15 01:32:00,53.0,47.0,-100.00,NNE,28,2.0,5.0,81,0.00,,,0.00,,2013-05-15 05:32:00,
2013-05-15 01:42:00,53.0,47.0,-100.00,NNE,28,2.0,5.0,81,0.00,,,0.00,,2013-05-15 05:42:00,
2013-05-15 01:52:00,53.0,47.0,-100.00,NNE,28,2.0,5.0,81,0.00,,,0.00,,2013-05-15 05:52:00,
2013-05-15 02:22:00,51.0,46.0,-100.00,North,356,0.0,2.0,84,0.00,,,0.00,,2013-05-15 06:22:00,
2013-05-15 02:32:00,51.0,46.0,-100.00,North,356,0.0,2.0,84,0.00,,,0.00,,2013-05-15 06:32:00,
2013-05-15 02:42:00,51.0,46.0,-100.00,North,356,0.0,2.0,84,0.00,,,0.00,,2013-05-15 06:42:00,
2013-05-15 02:52:00,51.0,46.0,-100.00,North,356,0.0,2.0,84,0.00,,,0.00,,2013-05-15 06:52:00,
2013-05-15 03:22:00,49.0,46.0,-100.00,East,85,2.0,3.0,89,0.00,,,0.00,,2013-05-15 07:22:00,
2013-05-15 03:32:00,49.0,46.0,-100.00,East,85,2.0,3.0,89,0.00,,,0.00,,2013-05-15 07:32:00,
2013-05-15 03:42:00,49.0,46.0,-100.00,East,85,2.0,3.0,89,0.00,,,0.00,,2013-05-15 07:42:00,
2013-05-15 03:52:00,49.0,46.0,-100.00,East,85,2.0,3.0,89,0.00,,,0.00,,2013-05-15 07:52:00,
2013-05-15 04:21:00,48.0,46.0,-100.00,NNE,24,0.0,3.0,93,-99.99,,,0.00,,2013-05-15 08:21:00,
2013-05-15 05:22:00,48.0,47.0,-100.00,NNW,330,1.0,4.0,96,-99.99,,,0.00,,2013-05-15 09:22:00,
2013-05-15 06:23:00,48.0,47.0,-100.00,East,83,2.0,3.0,97,0.00,,,0.00,,2013-05-15 10:23:00,
2013-05-15 06:42:00,48.0,47.0,-100.00,East,83,2.0,3.0,97,0.00,,,0.00,,2013-05-15 10:42:00,
2013-05-15 06:52:00,48.0,47.0,-100.00,East,83,2.0,3.0,97,0.00,,,0.00,,2013-05-15 10:52:00,
2013-05-15 07:28:00,48.0,47.0,-100.00,East,79,0.0,2.0,97,0.00,,,0.00,,2013-05-15 11:28:00,
2013-05-15 08:29:00,49.0,48.0,-100.00,North,349,2.0,3.0,98,-99.99,,,0.00,,2013-05-15 12:29:00,
2013-05-15 08:37:00,49.0,48.0,-100.00,North,349,2.0,3.0,98,-99.99,,,0.00,,2013-05-15 12:37:00,
2013-05-15 08:57:00,59.0,56.0,-100.00,SE,130,0.0,3.0,89,-99.99,,,0.00,,2013-05-15 12:57:00,
2013-05-15 09:37:00,59.0,56.0,-100.00,SE,130,0.0,3.0,89,-99.99,,,0.00,,2013-05-15 13:37:00,
2013-05-15 09:47:00,59.0,56.0,-100.00,SE,130,0.0,3.0,89,-99.99,,,0.00,,2013-05-15 13:47:00,
2013-05-15 10:27:00,67.0,54.0,-100.00,SW,234,3.0,9.0,64,0.00,,,0.00,,2013-05-15 14:27:00,
2013-05-15 10:38:00,67.0,54.0,-100.00,SW,234,3.0,9.0,64,0.00,,,0.00,,2013-05-15 14:38:00,
2013-05-15 10:49:00,67.0,54.0,-100.00,SW,234,3.0,9.0,64,0.00,,,0.00,,2013-05-15 14:49:00,
2013-05-15 10:54:00,67.0,54.0,-100.00,SW,234,3.0,9.0,64,0.00,,,0.00,,2013-05-15 14:54:00,
2013-05-15 10:57:00,73.0,54.0,-100.00,WSW,253,4.0,11.0,52,0.00,,,0.00,,2013-05-15 14:57:00,
2013-05-15 11:29:00,73.0,54.0,-100.00,WSW,253,4.0,11.0,52,0.00,,,0.00,,2013-05-15 15:29:00,
2013-05-15 11:48:00,73.0,54.0,-100.00,WSW,253,4.0,11.0,52,0.00,,,0.00,,2013-05-15 15:48:00,
2013-05-15 12:38:00,76.0,53.0,-100.00,West,266,5.0,11.0,45,0.00,,,0.00,,2013-05-15 16:38:00,
2013-05-15 12:49:00,76.0,53.0,-100.00,West,266,5.0,11.0,45,0.00,,,0.00,,2013-05-15 16:49:00,
2013-05-15 12:54:00,76.0,53.0,-100.00,West,266,5.0,11.0,45,0.00,,,0.00,,2013-05-15 16:54:00,
2013-05-15 12:57:00,81.0,49.0,-100.00,West,268,5.0,12.0,33,0.00,,,0.00,,2013-05-15 16:57:00,
2013-05-15 13:28:00,81.0,49.0,-100.00,West,268,5.0,12.0,33,0.00,,,0.00,,2013-05-15 17:28:00,
2013-05-15 13:38:00,81.0,49.0,-100.00,West,268,5.0,12.0,33,0.00,,,0.00,,2013-05-15 17:38:00,
2013-05-15 13:47:00,81.0,49.0,-100.00,West,268,5.0,12.0,33,0.00,,,0.00,,2013-05-15 17:47:00,
2013-05-15 14:28:00,85.0,53.0,-100.00,WSW,239,4.0,10.0,34,0.00,,,0.00,,2013-05-15 18:28:00,
2013-05-15 14:38:00,85.0,53.0,-100.00,WSW,239,4.0,10.0,34,0.00,,,0.00,,2013-05-15 18:38:00,
2013-05-15 14:47:00,85.0,53.0,-100.00,WSW,239,4.0,10.0,34,0.00,,,0.00,,2013-05-15 18:47:00,
2013-05-15 14:55:00,85.0,53.0,-100.00,WSW,239,4.0,10.0,34,0.00,,,0.00,,2013-05-15 18:55:00,
2013-05-15 15:39:00,83.0,47.0,-100.00,West,277,7.0,15.0,29,0.00,,,0.00,,2013-05-15 19:39:00,
2013-05-15 15:47:00,83.0,47.0,-100.00,West,277,7.0,15.0,29,0.00,,,0.00,,2013-05-15 19:47:00,
2013-05-15 15:54:00,83.0,47.0,-100.00,West,277,7.0,15.0,29,0.00,,,0.00,,2013-05-15 19:54:00,
2013-05-15 16:30:00,84.0,48.0,-100.00,WSW,241,6.0,15.0,29,0.00,,,0.00,,2013-05-15 20:30:00,
2013-05-15 16:40:00,84.0,48.0,-100.00,WSW,241,6.0,15.0,29,0.00,,,0.00,,2013-05-15 20:40:00,
2013-05-15 16:47:00,84.0,48.0,-100.00,WSW,241,6.0,15.0,29,0.00,,,0.00,,2013-05-15 20:47:00,
2013-05-15 17:28:00,83.0,48.0,-100.00,West,279,8.0,13.0,30,0.00,,,0.00,,2013-05-15 21:28:00,
2013-05-15 17:41:00,83.0,48.0,-100.00,West,279,8.0,13.0,30,0.00,,,0.00,,2013-05-15 21:41:00,
2013-05-15 17:51:00,83.0,48.0,-100.00,West,279,8.0,13.0,30,0.00,,,0.00,,2013-05-15 21:51:00,
2013-05-15 18:50:00,83.0,49.0,-100.00,West,270,6.0,13.0,31,0.00,,,0.00,,2013-05-15 22:50:00,
2013-05-15 19:30:00,79.0,47.0,-100.00,WNW,291,6.0,10.0,32,0.00,,,0.00,,2013-05-15 23:30:00,
2013-05-15 19:39:00,79.0,47.0,-100.00,WNW,291,6.0,10.0,32,0.00,,,0.00,,2013-05-15 23:39:00,
2013-05-15 19:50:00,79.0,47.0,-100.00,WNW,291,6.0,10.0,32,0.00,,,0.00,,2013-05-15 23:50:00,
2013-05-15 19:56:00,79.0,47.0,-100.00,WNW,291,6.0,10.0,32,0.00,,,0.00,,2013-05-15 23:56:00,
2013-05-15 20:27:00,69.0,47.0,-100.00,West,278,4.0,8.0,45,0.00,,,0.00,,2013-05-16 00:27:00,
2013-05-15 20:37:00,69.0,47.0,-100.00,West,278,4.0,8.0,45,0.00,,,0.00,,2013-05-16 00:37:00,
2013-05-15 20:55:00,69.0,47.0,-100.00,West,278,4.0,8.0,45,0.00,,,0.00,,2013-05-16 00:55:00,
2013-05-15 21:30:00,64.0,48.0,-100.00,ESE,106,2.0,6.0,56,0.00,,,0.00,,2013-05-16 01:30:00,
2013-05-15 21:39:00,64.0,48.0,-100.00,ESE,106,2.0,6.0,56,0.00,,,0.00,,2013-05-16 01:39:00,
2013-05-15 21:49:00,64.0,48.0,-100.00,ESE,106,2.0,6.0,56,0.00,,,0.00,,2013-05-16 01:49:00,
2013-05-15 21:56:00,64.0,48.0,-100.00,ESE,106,2.0,6.0,56,0.00,,,0.00,,2013-05-16 01:56:00,
2013-05-15 22:39:00,60.0,48.0,-100.00,SSW,212,1.0,4.0,64,0.00,,,0.00,,2013-05-16 02:39:00,
2013-05-15 22:47:00,60.0,48.0,-100.00,SSW,212,1.0,4.0,64,0.00,,,0.00,,2013-05-16 02:47:00,
2013-05-15 22:54:00,60.0,48.0,-100.00,SSW,212,1.0,4.0,64,0.00,,,0.00,,2013-05-16 02:54:00,
2013-05-15 23:39:00,59.0,49.0,-100.00,ENE,67,0.0,3.0,69,0.00,,,0.00,,2013-05-16 03:39:00,
2013-05-15 23:46:00,59.0,49.0,-100.00,ENE,67,0.0,3.0,69,0.00,,,0.00,,2013-05-16 03:46:00,
2013-05-15 23:55:00,59.0,49.0,-100.00,ENE,67,0.0,3.0,69,0.00,,,0.00,,2013-05-16 03:55:00,